sensor_id;sensor_type;location;lat;lon;timestamp;P1;durP1;ratioP1;P2;durP2;ratioP2
19566;SDS011;9930;49.240;8.548;2022-11-20T00:01:28;5.25;;;4.72;;
19566;SDS011;9930;49.240;8.548;2022-11-20T00:03:55;4.97;;;4.47;;
19566;SDS011;9930;49.240;8.548;2022-11-20T00:06:23;5.15;;;4.65;;
19566;SDS011;9930;49.240;8.548;2022-11-20T00:08:53;5.28;;;4.78;;
19566;SDS011;9930;49.240;8.548;2022-11-20T00:11:26;5.13;;;4.63;;
19566;SDS011;9930;49.240;8.548;2022-11-20T00:13:54;5.32;;;4.88;;
19566;SDS011;9930;49.240;8.548;2022-11-20T00:16:24;5.13;;;4.68;;
19566;SDS011;9930;49.240;8.548;2022-11-20T00:18:53;5.43;;;4.93;;
19566;SDS011;9930;49.240;8.548;2022-11-20T00:21:24;5.07;;;4.63;;
19566;SDS011;9930;49.240;8.548;2022-11-20T00:23:55;5.80;;;5.03;;
19566;SDS011;9930;49.240;8.548;2022-11-20T00:26:23;5.70;;;5.20;;
19566;SDS011;9930;49.240;8.548;2022-11-20T00:28:53;5.30;;;4.80;;
19566;SDS011;9930;49.240;8.548;2022-11-20T00:31:23;5.32;;;4.82;;
19566;SDS011;9930;49.240;8.548;2022-11-20T00:33:56;5.63;;;5.13;;
19566;SDS011;9930;49.240;8.548;2022-11-20T00:36:24;5.93;;;5.30;;
19566;SDS011;9930;49.240;8.548;2022-11-20T00:38:55;6.63;;;5.93;;
19566;SDS011;9930;49.240;8.548;2022-11-20T00:41:23;6.55;;;5.28;;
19566;SDS011;9930;49.240;8.548;2022-11-20T00:43:53;5.38;;;4.78;;
19566;SDS011;9930;49.240;8.548;2022-11-20T00:46:27;6.28;;;5.68;;
19566;SDS011;9930;49.240;8.548;2022-11-20T00:48:55;5.60;;;5.10;;
19566;SDS011;9930;49.240;8.548;2022-11-20T00:51:23;5.20;;;4.70;;
19566;SDS011;9930;49.240;8.548;2022-11-20T00:53:57;7.93;;;5.72;;
19566;SDS011;9930;49.240;8.548;2022-11-20T00:56:27;5.63;;;4.97;;
19566;SDS011;9930;49.240;8.548;2022-11-20T00:58:58;5.22;;;4.72;;
19566;SDS011;9930;49.240;8.548;2022-11-20T01:01:26;4.38;;;3.97;;
19566;SDS011;9930;49.240;8.548;2022-11-20T01:03:57;3.95;;;3.58;;
19566;SDS011;9930;49.240;8.548;2022-11-20T01:09:03;4.43;;;4.03;;
19566;SDS011;9930;49.240;8.548;2022-11-20T01:11:38;4.55;;;4.15;;
19566;SDS011;9930;49.240;8.548;2022-11-20T01:14:12;4.68;;;4.18;;
19566;SDS011;9930;49.240;8.548;2022-11-20T01:16:43;4.38;;;3.97;;
19566;SDS011;9930;49.240;8.548;2022-11-20T01:19:14;4.75;;;4.35;;
19566;SDS011;9930;49.240;8.548;2022-11-20T01:21:43;4.95;;;4.40;;
19566;SDS011;9930;49.240;8.548;2022-11-20T01:24:14;5.30;;;4.80;;
19566;SDS011;9930;49.240;8.548;2022-11-20T01:26:43;5.22;;;4.40;;
19566;SDS011;9930;49.240;8.548;2022-11-20T01:29:13;5.70;;;5.10;;
19566;SDS011;9930;49.240;8.548;2022-11-20T01:31:42;5.32;;;4.82;;
19566;SDS011;9930;49.240;8.548;2022-11-20T01:34:09;6.78;;;5.18;;
19566;SDS011;9930;49.240;8.548;2022-11-20T01:36:38;5.40;;;4.88;;
19566;SDS011;9930;49.240;8.548;2022-11-20T01:39:07;5.82;;;5.07;;
19566;SDS011;9930;49.240;8.548;2022-11-20T01:41:37;5.47;;;4.97;;
19566;SDS011;9930;49.240;8.548;2022-11-20T01:47:25;6.70;;;5.10;;
19566;SDS011;9930;49.240;8.548;2022-11-20T01:52:54;6.20;;;5.60;;
19566;SDS011;9930;49.240;8.548;2022-11-20T01:55:34;6.13;;;5.53;;
19566;SDS011;9930;49.240;8.548;2022-11-20T01:58:06;6.30;;;5.22;;
19566;SDS011;9930;49.240;8.548;2022-11-20T02:00:33;5.97;;;5.38;;
19566;SDS011;9930;49.240;8.548;2022-11-20T02:03:09;5.43;;;4.82;;
19566;SDS011;9930;49.240;8.548;2022-11-20T02:05:45;5.40;;;4.72;;
19566;SDS011;9930;49.240;8.548;2022-11-20T02:08:26;5.35;;;4.85;;
19566;SDS011;9930;49.240;8.548;2022-11-20T02:10:55;6.18;;;5.30;;
19566;SDS011;9930;49.240;8.548;2022-11-20T02:13:22;6.43;;;5.40;;
19566;SDS011;9930;49.240;8.548;2022-11-20T02:18:56;7.72;;;6.35;;
19566;SDS011;9930;49.240;8.548;2022-11-20T02:24:18;7.10;;;6.35;;
19566;SDS011;9930;49.240;8.548;2022-11-20T02:26:58;7.40;;;6.57;;
19566;SDS011;9930;49.240;8.548;2022-11-20T02:29:38;7.85;;;6.68;;
19566;SDS011;9930;49.240;8.548;2022-11-20T02:32:24;6.57;;;5.90;;
19566;SDS011;9930;49.240;8.548;2022-11-20T02:34:58;6.03;;;5.43;;
19566;SDS011;9930;49.240;8.548;2022-11-20T02:37:39;6.38;;;5.68;;
19566;SDS011;9930;49.240;8.548;2022-11-20T02:40:06;6.50;;;5.82;;
19566;SDS011;9930;49.240;8.548;2022-11-20T02:42:32;6.43;;;5.78;;
19566;SDS011;9930;49.240;8.548;2022-11-20T02:44:58;6.97;;;6.28;;
19566;SDS011;9930;49.240;8.548;2022-11-20T02:47:23;6.32;;;5.70;;
19566;SDS011;9930;49.240;8.548;2022-11-20T02:49:52;5.78;;;5.20;;
19566;SDS011;9930;49.240;8.548;2022-11-20T02:52:18;5.70;;;5.20;;
19566;SDS011;9930;49.240;8.548;2022-11-20T02:54:53;6.38;;;5.72;;
19566;SDS011;9930;49.240;8.548;2022-11-20T02:57:21;6.35;;;5.75;;
19566;SDS011;9930;49.240;8.548;2022-11-20T02:59:52;6.82;;;6.18;;
19566;SDS011;9930;49.240;8.548;2022-11-20T03:02:19;6.32;;;5.72;;
19566;SDS011;9930;49.240;8.548;2022-11-20T03:04:54;6.53;;;5.82;;
19566;SDS011;9930;49.240;8.548;2022-11-20T03:07:21;7.20;;;6.50;;
19566;SDS011;9930;49.240;8.548;2022-11-20T03:09:49;6.15;;;5.55;;
19566;SDS011;9930;49.240;8.548;2022-11-20T03:12:23;6.78;;;6.07;;
19566;SDS011;9930;49.240;8.548;2022-11-20T03:14:52;6.93;;;6.22;;
19566;SDS011;9930;49.240;8.548;2022-11-20T03:17:18;7.70;;;5.35;;
19566;SDS011;9930;49.240;8.548;2022-11-20T03:19:56;6.47;;;5.80;;
19566;SDS011;9930;49.240;8.548;2022-11-20T03:22:23;6.15;;;5.55;;
19566;SDS011;9930;49.240;8.548;2022-11-20T03:24:49;6.55;;;5.70;;
19566;SDS011;9930;49.240;8.548;2022-11-20T03:27:23;6.25;;;5.65;;
19566;SDS011;9930;49.240;8.548;2022-11-20T03:29:51;6.68;;;5.97;;
19566;SDS011;9930;49.240;8.548;2022-11-20T03:32:28;6.78;;;6.07;;
19566;SDS011;9930;49.240;8.548;2022-11-20T03:34:54;7.15;;;6.45;;
19566;SDS011;9930;49.240;8.548;2022-11-20T03:37:22;6.88;;;6.18;;
19566;SDS011;9930;49.240;8.548;2022-11-20T03:39:53;7.22;;;6.47;;
19566;SDS011;9930;49.240;8.548;2022-11-20T03:42:20;8.05;;;6.70;;
19566;SDS011;9930;49.240;8.548;2022-11-20T03:45:07;6.45;;;5.70;;
19566;SDS011;9930;49.240;8.548;2022-11-20T03:47:36;6.53;;;5.82;;
19566;SDS011;9930;49.240;8.548;2022-11-20T03:50:02;6.95;;;6.13;;
19566;SDS011;9930;49.240;8.548;2022-11-20T03:52:29;7.70;;;6.65;;
19566;SDS011;9930;49.240;8.548;2022-11-20T03:54:54;7.70;;;6.75;;
19566;SDS011;9930;49.240;8.548;2022-11-20T03:57:23;7.63;;;6.82;;
19566;SDS011;9930;49.240;8.548;2022-11-20T03:59:57;7.95;;;7.15;;
19566;SDS011;9930;49.240;8.548;2022-11-20T04:02:23;9.43;;;8.10;;
19566;SDS011;9930;49.240;8.548;2022-11-20T04:04:49;8.00;;;7.20;;
19566;SDS011;9930;49.240;8.548;2022-11-20T04:07:24;7.70;;;6.88;;
19566;SDS011;9930;49.240;8.548;2022-11-20T04:09:51;7.97;;;7.18;;
19566;SDS011;9930;49.240;8.548;2022-11-20T04:12:23;8.05;;;6.07;;
19566;SDS011;9930;49.240;8.548;2022-11-20T04:14:53;8.38;;;7.00;;
19566;SDS011;9930;49.240;8.548;2022-11-20T04:17:19;7.65;;;6.95;;
19566;SDS011;9930;49.240;8.548;2022-11-20T04:19:48;8.02;;;7.07;;
19566;SDS011;9930;49.240;8.548;2022-11-20T04:22:18;9.10;;;7.65;;
19566;SDS011;9930;49.240;8.548;2022-11-20T04:24:44;8.23;;;7.40;;
19566;SDS011;9930;49.240;8.548;2022-11-20T04:27:14;7.82;;;7.03;;
19566;SDS011;9930;49.240;8.548;2022-11-20T04:29:42;8.32;;;7.43;;
19566;SDS011;9930;49.240;8.548;2022-11-20T04:32:07;8.27;;;7.47;;
19566;SDS011;9930;49.240;8.548;2022-11-20T04:34:33;8.55;;;7.65;;
19566;SDS011;9930;49.240;8.548;2022-11-20T04:37:04;9.23;;;7.47;;
19566;SDS011;9930;49.240;8.548;2022-11-20T04:39:30;8.30;;;7.25;;
19566;SDS011;9930;49.240;8.548;2022-11-20T04:42:00;9.57;;;7.70;;
19566;SDS011;9930;49.240;8.548;2022-11-20T04:44:44;8.35;;;7.45;;
19566;SDS011;9930;49.240;8.548;2022-11-20T04:47:10;8.95;;;8.02;;
19566;SDS011;9930;49.240;8.548;2022-11-20T04:49:38;8.50;;;7.45;;
19566;SDS011;9930;49.240;8.548;2022-11-20T04:52:04;9.43;;;7.80;;
19566;SDS011;9930;49.240;8.548;2022-11-20T04:54:29;7.97;;;7.10;;
19566;SDS011;9930;49.240;8.548;2022-11-20T04:56:55;9.05;;;7.90;;
19566;SDS011;9930;49.240;8.548;2022-11-20T04:59:23;8.95;;;7.45;;
19566;SDS011;9930;49.240;8.548;2022-11-20T05:01:49;7.63;;;6.85;;
19566;SDS011;9930;49.240;8.548;2022-11-20T05:04:18;7.63;;;6.82;;
19566;SDS011;9930;49.240;8.548;2022-11-20T05:06:49;8.32;;;6.55;;
19566;SDS011;9930;49.240;8.548;2022-11-20T05:09:18;8.98;;;7.75;;
19566;SDS011;9930;49.240;8.548;2022-11-20T05:11:53;9.18;;;7.53;;
19566;SDS011;9930;49.240;8.548;2022-11-20T05:14:23;8.40;;;7.50;;
19566;SDS011;9930;49.240;8.548;2022-11-20T05:16:53;8.23;;;7.43;;
19566;SDS011;9930;49.240;8.548;2022-11-20T05:19:19;8.30;;;7.05;;
19566;SDS011;9930;49.240;8.548;2022-11-20T05:21:53;8.60;;;7.72;;
19566;SDS011;9930;49.240;8.548;2022-11-20T05:24:22;8.20;;;7.40;;
19566;SDS011;9930;49.240;8.548;2022-11-20T05:26:56;7.68;;;6.80;;
19566;SDS011;9930;49.240;8.548;2022-11-20T05:29:23;9.20;;;7.10;;
19566;SDS011;9930;49.240;8.548;2022-11-20T05:31:53;7.38;;;6.68;;
19566;SDS011;9930;49.240;8.548;2022-11-20T05:34:19;7.82;;;6.93;;
19566;SDS011;9930;49.240;8.548;2022-11-20T05:36:48;8.48;;;7.32;;
19566;SDS011;9930;49.240;8.548;2022-11-20T05:39:18;8.93;;;7.18;;
19566;SDS011;9930;49.240;8.548;2022-11-20T05:41:55;7.28;;;6.57;;
19566;SDS011;9930;49.240;8.548;2022-11-20T05:44:40;8.07;;;7.28;;
19566;SDS011;9930;49.240;8.548;2022-11-20T05:47:08;7.95;;;7.15;;
19566;SDS011;9930;49.240;8.548;2022-11-20T05:49:33;7.70;;;6.85;;
19566;SDS011;9930;49.240;8.548;2022-11-20T05:51:59;9.13;;;7.80;;
19566;SDS011;9930;49.240;8.548;2022-11-20T05:54:26;8.32;;;7.30;;
19566;SDS011;9930;49.240;8.548;2022-11-20T05:56:55;8.98;;;8.07;;
19566;SDS011;9930;49.240;8.548;2022-11-20T05:59:26;9.98;;;8.90;;
19566;SDS011;9930;49.240;8.548;2022-11-20T06:01:56;9.13;;;8.23;;
19566;SDS011;9930;49.240;8.548;2022-11-20T06:04:25;8.75;;;7.85;;
19566;SDS011;9930;49.240;8.548;2022-11-20T06:06:56;8.90;;;8.00;;
19566;SDS011;9930;49.240;8.548;2022-11-20T06:09:26;9.70;;;8.38;;
19566;SDS011;9930;49.240;8.548;2022-11-20T06:11:56;10.85;;;9.75;;
19566;SDS011;9930;49.240;8.548;2022-11-20T06:14:26;11.07;;;9.98;;
19566;SDS011;9930;49.240;8.548;2022-11-20T06:16:55;10.77;;;9.68;;
19566;SDS011;9930;49.240;8.548;2022-11-20T06:19:25;9.80;;;8.88;;
19566;SDS011;9930;49.240;8.548;2022-11-20T06:21:54;10.68;;;9.57;;
19566;SDS011;9930;49.240;8.548;2022-11-20T06:24:21;10.32;;;9.32;;
19566;SDS011;9930;49.240;8.548;2022-11-20T06:26:56;8.77;;;7.93;;
19566;SDS011;9930;49.240;8.548;2022-11-20T06:29:23;8.55;;;7.75;;
19566;SDS011;9930;49.240;8.548;2022-11-20T06:31:53;8.95;;;7.82;;
19566;SDS011;9930;49.240;8.548;2022-11-20T06:34:22;8.15;;;7.35;;
19566;SDS011;9930;49.240;8.548;2022-11-20T06:36:53;7.82;;;7.07;;
19566;SDS011;9930;49.240;8.548;2022-11-20T06:39:19;8.27;;;7.47;;
19566;SDS011;9930;49.240;8.548;2022-11-20T06:41:48;8.43;;;7.60;;
19566;SDS011;9930;49.240;8.548;2022-11-20T06:44:18;7.80;;;7.00;;
19566;SDS011;9930;49.240;8.548;2022-11-20T06:46:48;7.32;;;6.63;;
19566;SDS011;9930;49.240;8.548;2022-11-20T06:49:18;7.40;;;6.70;;
19566;SDS011;9930;49.240;8.548;2022-11-20T06:51:43;6.95;;;6.05;;
19566;SDS011;9930;49.240;8.548;2022-11-20T06:54:09;5.35;;;4.85;;
19566;SDS011;9930;49.240;8.548;2022-11-20T06:56:37;4.38;;;4.00;;
19566;SDS011;9930;49.240;8.548;2022-11-20T06:59:08;3.97;;;3.55;;
19566;SDS011;9930;49.240;8.548;2022-11-20T07:01:36;3.88;;;3.47;;
19566;SDS011;9930;49.240;8.548;2022-11-20T07:04:06;3.60;;;3.30;;
19566;SDS011;9930;49.240;8.548;2022-11-20T07:06:32;3.90;;;3.60;;
19566;SDS011;9930;49.240;8.548;2022-11-20T07:08:57;4.82;;;3.38;;
19566;SDS011;9930;49.240;8.548;2022-11-20T07:11:23;3.58;;;3.35;;
19566;SDS011;9930;49.240;8.548;2022-11-20T07:13:50;3.88;;;3.53;;
19566;SDS011;9930;49.240;8.548;2022-11-20T07:16:24;3.53;;;3.22;;
19566;SDS011;9930;49.240;8.548;2022-11-20T07:18:55;4.25;;;3.67;;
19566;SDS011;9930;49.240;8.548;2022-11-20T07:21:24;3.60;;;3.30;;
19566;SDS011;9930;49.240;8.548;2022-11-20T07:24:00;3.90;;;3.47;;
19566;SDS011;9930;49.240;8.548;2022-11-20T07:26:25;3.03;;;2.83;;
19566;SDS011;9930;49.240;8.548;2022-11-20T07:28:53;3.80;;;3.10;;
19566;SDS011;9930;49.240;8.548;2022-11-20T07:31:23;3.63;;;3.28;;
19566;SDS011;9930;49.240;8.548;2022-11-20T07:33:53;3.83;;;3.25;;
19566;SDS011;9930;49.240;8.548;2022-11-20T07:36:25;3.35;;;3.05;;
19566;SDS011;9930;49.240;8.548;2022-11-20T07:38:56;3.20;;;2.90;;
19566;SDS011;9930;49.240;8.548;2022-11-20T07:41:25;3.42;;;3.13;;
19566;SDS011;9930;49.240;8.548;2022-11-20T07:43:52;3.40;;;3.10;;
19566;SDS011;9930;49.240;8.548;2022-11-20T07:46:23;3.45;;;3.15;;
19566;SDS011;9930;49.240;8.548;2022-11-20T07:48:49;3.10;;;2.85;;
19566;SDS011;9930;49.240;8.548;2022-11-20T07:51:18;2.90;;;2.70;;
19566;SDS011;9930;49.240;8.548;2022-11-20T07:53:53;3.30;;;3.00;;
19566;SDS011;9930;49.240;8.548;2022-11-20T07:56:20;3.20;;;2.90;;
19566;SDS011;9930;49.240;8.548;2022-11-20T07:58:48;4.18;;;3.15;;
19566;SDS011;9930;49.240;8.548;2022-11-20T08:01:19;3.70;;;3.40;;
19566;SDS011;9930;49.240;8.548;2022-11-20T08:03:53;3.40;;;3.10;;
19566;SDS011;9930;49.240;8.548;2022-11-20T08:06:22;8.45;;;7.53;;
19566;SDS011;9930;49.240;8.548;2022-11-20T08:08:59;8.55;;;7.65;;
19566;SDS011;9930;49.240;8.548;2022-11-20T08:11:29;6.47;;;5.85;;
19566;SDS011;9930;49.240;8.548;2022-11-20T08:14:16;10.30;;;9.20;;
19566;SDS011;9930;49.240;8.548;2022-11-20T08:16:44;10.45;;;9.35;;
19566;SDS011;9930;49.240;8.548;2022-11-20T08:19:17;7.63;;;6.75;;
19566;SDS011;9930;49.240;8.548;2022-11-20T08:21:44;5.60;;;5.03;;
19566;SDS011;9930;49.240;8.548;2022-11-20T08:24:12;4.63;;;4.22;;
19566;SDS011;9930;49.240;8.548;2022-11-20T08:26:38;4.78;;;4.38;;
19566;SDS011;9930;49.240;8.548;2022-11-20T08:29:05;4.80;;;4.40;;
19566;SDS011;9930;49.240;8.548;2022-11-20T08:31:33;6.35;;;4.60;;
19566;SDS011;9930;49.240;8.548;2022-11-20T08:34:04;4.05;;;3.75;;
19566;SDS011;9930;49.240;8.548;2022-11-20T08:36:32;3.72;;;3.42;;
19566;SDS011;9930;49.240;8.548;2022-11-20T08:38:59;4.25;;;3.50;;
19566;SDS011;9930;49.240;8.548;2022-11-20T08:41:25;3.45;;;3.25;;
19566;SDS011;9930;49.240;8.548;2022-11-20T08:46:24;3.40;;;3.10;;
19566;SDS011;9930;49.240;8.548;2022-11-20T08:48:52;3.58;;;3.28;;
19566;SDS011;9930;49.240;8.548;2022-11-20T08:51:21;3.50;;;3.20;;
19566;SDS011;9930;49.240;8.548;2022-11-20T08:53:48;3.80;;;3.50;;
19566;SDS011;9930;49.240;8.548;2022-11-20T08:56:19;3.78;;;3.47;;
19566;SDS011;9930;49.240;8.548;2022-11-20T08:58:49;4.55;;;4.15;;
19566;SDS011;9930;49.240;8.548;2022-11-20T09:01:19;3.75;;;3.45;;
19566;SDS011;9930;49.240;8.548;2022-11-20T09:03:49;4.10;;;3.70;;
19566;SDS011;9930;49.240;8.548;2022-11-20T09:06:23;3.20;;;3.00;;
19566;SDS011;9930;49.240;8.548;2022-11-20T09:08:53;3.97;;;3.28;;
19566;SDS011;9930;49.240;8.548;2022-11-20T09:11:21;3.60;;;3.30;;
19566;SDS011;9930;49.240;8.548;2022-11-20T09:13:49;3.78;;;3.00;;
19566;SDS011;9930;49.240;8.548;2022-11-20T09:16:23;3.17;;;2.88;;
19566;SDS011;9930;49.240;8.548;2022-11-20T09:18:52;3.50;;;3.20;;
19566;SDS011;9930;49.240;8.548;2022-11-20T09:21:23;6.60;;;3.70;;
19566;SDS011;9930;49.240;8.548;2022-11-20T09:23:52;3.53;;;3.25;;
19566;SDS011;9930;49.240;8.548;2022-11-20T09:26:23;3.72;;;3.42;;
19566;SDS011;9930;49.240;8.548;2022-11-20T09:28:53;3.70;;;3.40;;
19566;SDS011;9930;49.240;8.548;2022-11-20T09:31:23;3.53;;;3.33;;
19566;SDS011;9930;49.240;8.548;2022-11-20T09:33:52;3.75;;;3.45;;
19566;SDS011;9930;49.240;8.548;2022-11-20T09:36:19;3.72;;;3.42;;
19566;SDS011;9930;49.240;8.548;2022-11-20T09:38:57;3.83;;;3.53;;
19566;SDS011;9930;49.240;8.548;2022-11-20T09:42:12;4.35;;;3.45;;
19566;SDS011;9930;49.240;8.548;2022-11-20T09:46:56;3.03;;;2.80;;
19566;SDS011;9930;49.240;8.548;2022-11-20T09:49:40;3.10;;;2.90;;
19566;SDS011;9930;49.240;8.548;2022-11-20T09:55:21;3.28;;;2.97;;
19566;SDS011;9930;49.240;8.548;2022-11-20T09:57:50;2.97;;;2.75;;
19566;SDS011;9930;49.240;8.548;2022-11-20T10:00:20;3.28;;;2.97;;
19566;SDS011;9930;49.240;8.548;2022-11-20T10:02:59;3.30;;;3.00;;
19566;SDS011;9930;49.240;8.548;2022-11-20T10:06:01;3.20;;;2.90;;
19566;SDS011;9930;49.240;8.548;2022-11-20T10:08:39;3.33;;;3.03;;
19566;SDS011;9930;49.240;8.548;2022-11-20T10:19:47;3.33;;;3.03;;
19566;SDS011;9930;49.240;8.548;2022-11-20T10:25:05;2.70;;;2.50;;
19566;SDS011;9930;49.240;8.548;2022-11-20T10:30:38;2.63;;;2.40;;
19566;SDS011;9930;49.240;8.548;2022-11-20T10:33:13;2.72;;;2.53;;
19566;SDS011;9930;49.240;8.548;2022-11-20T10:38:39;3.10;;;2.80;;
19566;SDS011;9930;49.240;8.548;2022-11-20T10:41:24;3.17;;;2.88;;
19566;SDS011;9930;49.240;8.548;2022-11-20T10:47:01;3.10;;;2.90;;
19566;SDS011;9930;49.240;8.548;2022-11-20T10:49:32;4.30;;;3.90;;
19566;SDS011;9930;49.240;8.548;2022-11-20T11:00:37;3.10;;;2.90;;
19566;SDS011;9930;49.240;8.548;2022-11-20T11:03:07;3.40;;;3.20;;
19566;SDS011;9930;49.240;8.548;2022-11-20T11:08:56;3.20;;;3.00;;
19566;SDS011;9930;49.240;8.548;2022-11-20T11:11:32;3.33;;;3.05;;
19566;SDS011;9930;49.240;8.548;2022-11-20T11:14:06;3.20;;;2.72;;
19566;SDS011;9930;49.240;8.548;2022-11-20T11:19:27;3.20;;;2.85;;
19566;SDS011;9930;49.240;8.548;2022-11-20T11:21:58;3.35;;;3.05;;
19566;SDS011;9930;49.240;8.548;2022-11-20T11:24:43;3.50;;;3.20;;
19566;SDS011;9930;49.240;8.548;2022-11-20T11:27:26;3.70;;;3.40;;
19566;SDS011;9930;49.240;8.548;2022-11-20T11:30:10;3.15;;;2.85;;
19566;SDS011;9930;49.240;8.548;2022-11-20T11:32:41;3.20;;;2.58;;
19566;SDS011;9930;49.240;8.548;2022-11-20T11:35:21;2.75;;;2.55;;
19566;SDS011;9930;49.240;8.548;2022-11-20T11:38:02;2.83;;;2.60;;
19566;SDS011;9930;49.240;8.548;2022-11-20T11:40:39;3.03;;;2.38;;
19566;SDS011;9930;49.240;8.548;2022-11-20T11:43:06;3.38;;;2.00;;
19566;SDS011;9930;49.240;8.548;2022-11-20T11:46:04;4.00;;;2.25;;
19566;SDS011;9930;49.240;8.548;2022-11-20T11:48:59;3.22;;;2.47;;
19566;SDS011;9930;49.240;8.548;2022-11-20T11:51:31;3.45;;;2.90;;
19566;SDS011;9930;49.240;8.548;2022-11-20T11:54:21;3.83;;;2.47;;
19566;SDS011;9930;49.240;8.548;2022-11-20T11:56:53;3.78;;;2.03;;
19566;SDS011;9930;49.240;8.548;2022-11-20T11:59:26;2.88;;;1.95;;
19566;SDS011;9930;49.240;8.548;2022-11-20T12:02:01;4.18;;;3.00;;
19566;SDS011;9930;49.240;8.548;2022-11-20T12:04:44;3.63;;;3.15;;
19566;SDS011;9930;49.240;8.548;2022-11-20T12:07:41;3.20;;;2.90;;
19566;SDS011;9930;49.240;8.548;2022-11-20T12:10:15;2.80;;;2.10;;
19566;SDS011;9930;49.240;8.548;2022-11-20T12:13:00;3.30;;;2.20;;
19566;SDS011;9930;49.240;8.548;2022-11-20T12:15:44;2.72;;;2.00;;
19566;SDS011;9930;49.240;8.548;2022-11-20T12:18:19;3.88;;;2.30;;
19566;SDS011;9930;49.240;8.548;2022-11-20T12:26:24;3.47;;;2.28;;
19566;SDS011;9930;49.240;8.548;2022-11-20T12:34:22;3.92;;;3.20;;
19566;SDS011;9930;49.240;8.548;2022-11-20T12:37:45;2.83;;;2.42;;
19566;SDS011;9930;49.240;8.548;2022-11-20T12:40:58;3.03;;;1.70;;
19566;SDS011;9930;49.240;8.548;2022-11-20T12:53:11;3.38;;;2.58;;
19566;SDS011;9930;49.240;8.548;2022-11-20T12:56:21;3.03;;;2.33;;
19566;SDS011;9930;49.240;8.548;2022-11-20T12:59:02;2.05;;;1.75;;
19566;SDS011;9930;49.240;8.548;2022-11-20T13:07:44;1.40;;;1.30;;
19566;SDS011;9930;49.240;8.548;2022-11-20T13:19:14;2.25;;;1.60;;
19566;SDS011;9930;49.240;8.548;2022-11-20T13:21:43;3.15;;;1.20;;
19566;SDS011;9930;49.240;8.548;2022-11-20T13:24:24;1.63;;;1.20;;
19566;SDS011;9930;49.240;8.548;2022-11-20T13:27:03;3.03;;;2.42;;
19566;SDS011;9930;49.240;8.548;2022-11-20T13:29:39;2.03;;;1.50;;
19566;SDS011;9930;49.240;8.548;2022-11-20T13:34:55;3.95;;;2.75;;
19566;SDS011;9930;49.240;8.548;2022-11-20T13:37:27;2.53;;;1.90;;
19566;SDS011;9930;49.240;8.548;2022-11-20T13:42:33;2.08;;;1.60;;
19566;SDS011;9930;49.240;8.548;2022-11-20T13:45:09;2.42;;;2.05;;
19566;SDS011;9930;49.240;8.548;2022-11-20T13:47:56;3.13;;;1.80;;
19566;SDS011;9930;49.240;8.548;2022-11-20T14:01:25;2.25;;;1.38;;
19566;SDS011;9930;49.240;8.548;2022-11-20T14:03:57;2.13;;;1.52;;
19566;SDS011;9930;49.240;8.548;2022-11-20T14:06:28;2.72;;;1.30;;
19566;SDS011;9930;49.240;8.548;2022-11-20T14:08:58;2.30;;;1.42;;
19566;SDS011;9930;49.240;8.548;2022-11-20T14:11:29;1.60;;;1.38;;
19566;SDS011;9930;49.240;8.548;2022-11-20T14:16:44;3.00;;;1.58;;
19566;SDS011;9930;49.240;8.548;2022-11-20T14:22:07;1.52;;;1.20;;
19566;SDS011;9930;49.240;8.548;2022-11-20T14:24:49;1.30;;;1.20;;
19566;SDS011;9930;49.240;8.548;2022-11-20T14:27:47;2.65;;;1.70;;
19566;SDS011;9930;49.240;8.548;2022-11-20T14:30:25;2.95;;;1.40;;
19566;SDS011;9930;49.240;8.548;2022-11-20T14:33:09;1.75;;;1.30;;
19566;SDS011;9930;49.240;8.548;2022-11-20T14:35:40;1.70;;;1.52;;
19566;SDS011;9930;49.240;8.548;2022-11-20T14:38:25;1.83;;;1.45;;
19566;SDS011;9930;49.240;8.548;2022-11-20T14:41:14;2.25;;;1.60;;
19566;SDS011;9930;49.240;8.548;2022-11-20T14:43:57;1.63;;;1.33;;
19566;SDS011;9930;49.240;8.548;2022-11-20T14:46:25;2.40;;;1.77;;
19566;SDS011;9930;49.240;8.548;2022-11-20T14:49:00;2.30;;;1.52;;
19566;SDS011;9930;49.240;8.548;2022-11-20T14:56:54;4.45;;;3.88;;
19566;SDS011;9930;49.240;8.548;2022-11-20T14:59:25;3.30;;;2.97;;
19566;SDS011;9930;49.240;8.548;2022-11-20T15:01:58;2.92;;;2.67;;
19566;SDS011;9930;49.240;8.548;2022-11-20T15:04:50;3.95;;;3.55;;
19566;SDS011;9930;49.240;8.548;2022-11-20T15:07:32;2.90;;;2.70;;
19566;SDS011;9930;49.240;8.548;2022-11-20T15:10:04;3.70;;;3.33;;
19566;SDS011;9930;49.240;8.548;2022-11-20T15:12:59;3.13;;;2.83;;
19566;SDS011;9930;49.240;8.548;2022-11-20T15:15:45;5.47;;;3.55;;
19566;SDS011;9930;49.240;8.548;2022-11-20T15:18:15;4.32;;;3.20;;
19566;SDS011;9930;49.240;8.548;2022-11-20T15:20:51;5.00;;;3.20;;
19566;SDS011;9930;49.240;8.548;2022-11-20T15:23:23;3.72;;;2.70;;
19566;SDS011;9930;49.240;8.548;2022-11-20T15:25:52;5.00;;;3.55;;
19566;SDS011;9930;49.240;8.548;2022-11-20T15:30:56;3.03;;;2.30;;
19566;SDS011;9930;49.240;8.548;2022-11-20T15:33:24;4.25;;;3.65;;
19566;SDS011;9930;49.240;8.548;2022-11-20T15:35:53;3.75;;;3.00;;
19566;SDS011;9930;49.240;8.548;2022-11-20T15:38:23;3.72;;;3.30;;
19566;SDS011;9930;49.240;8.548;2022-11-20T15:40:50;3.33;;;2.92;;
19566;SDS011;9930;49.240;8.548;2022-11-20T15:43:23;4.10;;;3.70;;
19566;SDS011;9930;49.240;8.548;2022-11-20T15:45:53;4.53;;;4.15;;
19566;SDS011;9930;49.240;8.548;2022-11-20T15:49:08;3.40;;;3.10;;
19566;SDS011;9930;49.240;8.548;2022-11-20T15:54:12;4.15;;;3.45;;
19566;SDS011;9930;49.240;8.548;2022-11-20T15:56:45;5.18;;;4.25;;
19566;SDS011;9930;49.240;8.548;2022-11-20T15:59:19;4.85;;;4.38;;
19566;SDS011;9930;49.240;8.548;2022-11-20T16:01:49;5.72;;;4.75;;
19566;SDS011;9930;49.240;8.548;2022-11-20T16:04:21;3.95;;;3.55;;
19566;SDS011;9930;49.240;8.548;2022-11-20T16:06:54;3.00;;;2.72;;
19566;SDS011;9930;49.240;8.548;2022-11-20T16:09:21;3.38;;;2.10;;
19566;SDS011;9930;49.240;8.548;2022-11-20T16:11:49;2.17;;;1.80;;
19566;SDS011;9930;49.240;8.548;2022-11-20T16:14:23;2.83;;;1.50;;
19566;SDS011;9930;49.240;8.548;2022-11-20T16:17:09;1.90;;;1.40;;
19566;SDS011;9930;49.240;8.548;2022-11-20T16:19:38;3.65;;;2.70;;
19566;SDS011;9930;49.240;8.548;2022-11-20T16:22:04;4.22;;;2.72;;
19566;SDS011;9930;49.240;8.548;2022-11-20T16:24:29;3.75;;;2.67;;
19566;SDS011;9930;49.240;8.548;2022-11-20T16:26:55;3.58;;;2.05;;
19566;SDS011;9930;49.240;8.548;2022-11-20T16:29:23;1.80;;;1.70;;
19566;SDS011;9930;49.240;8.548;2022-11-20T16:31:51;3.47;;;2.55;;
19566;SDS011;9930;49.240;8.548;2022-11-20T16:34:19;3.28;;;2.50;;
19566;SDS011;9930;49.240;8.548;2022-11-20T16:36:49;2.72;;;2.00;;
19566;SDS011;9930;49.240;8.548;2022-11-20T16:39:24;2.88;;;2.40;;
19566;SDS011;9930;49.240;8.548;2022-11-20T16:41:57;3.72;;;2.55;;
19566;SDS011;9930;49.240;8.548;2022-11-20T16:44:23;2.65;;;2.40;;
19566;SDS011;9930;49.240;8.548;2022-11-20T16:46:50;2.33;;;2.13;;
19566;SDS011;9930;49.240;8.548;2022-11-20T16:49:27;2.75;;;2.15;;
19566;SDS011;9930;49.240;8.548;2022-11-20T16:51:54;4.10;;;2.60;;
19566;SDS011;9930;49.240;8.548;2022-11-20T16:54:20;2.47;;;2.22;;
19566;SDS011;9930;49.240;8.548;2022-11-20T16:56:49;4.57;;;2.38;;
19566;SDS011;9930;49.240;8.548;2022-11-20T16:59:19;3.05;;;2.55;;
19566;SDS011;9930;49.240;8.548;2022-11-20T17:01:47;2.42;;;2.22;;
19566;SDS011;9930;49.240;8.548;2022-11-20T17:04:13;5.55;;;4.97;;
19566;SDS011;9930;49.240;8.548;2022-11-20T17:06:43;9.85;;;8.15;;
19566;SDS011;9930;49.240;8.548;2022-11-20T17:09:11;4.32;;;3.40;;
19566;SDS011;9930;49.240;8.548;2022-11-20T17:11:40;5.20;;;4.38;;
19566;SDS011;9930;49.240;8.548;2022-11-20T17:14:09;5.57;;;2.72;;
19566;SDS011;9930;49.240;8.548;2022-11-20T17:16:39;3.67;;;2.75;;
19566;SDS011;9930;49.240;8.548;2022-11-20T17:19:05;2.65;;;2.33;;
19566;SDS011;9930;49.240;8.548;2022-11-20T17:21:31;3.22;;;2.30;;
19566;SDS011;9930;49.240;8.548;2022-11-20T17:24:06;2.08;;;1.75;;
19566;SDS011;9930;49.240;8.548;2022-11-20T17:26:35;3.03;;;2.60;;
19566;SDS011;9930;49.240;8.548;2022-11-20T17:29:04;1.92;;;1.73;;
19566;SDS011;9930;49.240;8.548;2022-11-20T17:31:39;2.00;;;1.80;;
19566;SDS011;9930;49.240;8.548;2022-11-20T17:34:06;2.63;;;1.85;;
19566;SDS011;9930;49.240;8.548;2022-11-20T17:36:37;1.80;;;1.45;;